Terminal Aerodrome Forecast
Issued by NWS

Home | Current Version | Previous Version | Text Only | Print | Product List | Glossary On
Versions: 1 2 3 4 5 6 7 8 9 10 11 12 13 14
000
FTUS43 KOAX 181100 AAA
TAFBFF
TAF AMD
KBFF 181131Z 1812/1912 13006KT 1/4SM FG VV001
      TEMPO 1812/1814 2SM BR OVC007
     FM181400 13008KT P6SM SKC
     FM181800 15012G23KT P6SM SCT100
     FM190100 13010KT P6SM SKC=

USA.gov is the U.S. government's official web portal to all federal, state and local government web resources and services.